Time;durP1;ratioP1;P1;durP2;ratioP2;P2;SDS_P1;SDS_P2;PMS_P1;PMS_P2;Temp;Humidity;BMP_temperature;BMP_pressure;BME280_temperature;BME280_humidity;BME280_pressure;Samples;Min_cycle;Max_cycle;Signal;HPM_P1;HPM_P2
2021/01/27 00:00:17;;;;;;;21.30;14.18;;;;;;;1.61;100.00;101160.00;4967354;28;20552;-82
2021/01/27 00:02:43;;;;;;;22.83;15.27;;;;;;;1.61;100.00;101154.69;4983190;28;20054;-82
2021/01/27 00:05:13;;;;;;;17.50;10.93;;;;;;;1.58;100.00;101139.88;4987726;28;20046;-83
2021/01/27 00:07:40;;;;;;;23.88;14.85;;;;;;;1.62;100.00;101151.13;4955331;28;20031;-83
2021/01/27 00:10:06;;;;;;;19.58;13.20;;;;;;;1.56;100.00;101150.56;4964048;28;20109;-83
2021/01/27 00:12:32;;;;;;;18.58;12.27;;;;;;;1.56;100.00;101142.63;4988266;28;20047;-85
2021/01/27 00:15:15;;;;;;;18.70;11.95;;;;;;;1.55;100.00;101146.22;4968864;28;20453;-83
2021/01/27 00:17:41;;;;;;;19.88;12.63;;;;;;;1.55;100.00;101134.78;4983332;28;20035;-84
2021/01/27 00:20:09;;;;;;;19.88;12.55;;;;;;;1.58;100.00;101148.69;4955537;28;20035;-82
2021/01/27 00:22:35;;;;;;;20.08;11.85;;;;;;;1.55;100.00;101134.78;4970206;28;20045;-85
2021/01/27 00:25:00;;;;;;;16.02;10.63;;;;;;;1.55;100.00;101138.31;4973500;28;20378;-83
2021/01/27 00:27:26;;;;;;;17.33;10.50;;;;;;;1.52;99.83;101141.09;4972566;28;20038;-87
2021/01/27 00:29:51;;;;;;;16.38;10.48;;;;;;;1.55;100.00;101146.22;4973129;28;20134;-84
2021/01/27 00:32:17;;;;;;;16.45;9.40;;;;;;;1.53;99.85;101150.75;4974029;28;20424;-84
2021/01/27 00:34:43;;;;;;;16.45;9.73;;;;;;;1.48;99.06;101141.41;4971928;28;20081;-86
2021/01/27 00:37:08;;;;;;;18.25;10.13;;;;;;;1.51;99.56;101133.28;4971705;28;20070;-82
2021/01/27 00:39:33;;;;;;;17.85;9.27;;;;;;;1.48;99.32;101123.75;4973474;28;20047;-85
2021/01/27 00:41:59;;;;;;;15.88;9.85;;;;;;;1.51;99.85;101133.28;4970541;28;20035;-83
2021/01/27 00:44:24;;;;;;;14.77;9.45;;;;;;;1.46;98.67;101123.00;4971688;28;20041;-85
2021/01/27 00:46:51;;;;;;;16.30;9.32;;;;;;;1.49;99.32;101114.84;4972834;28;20078;-84
2021/01/27 00:49:16;;;;;;;18.33;8.80;;;;;;;1.47;97.69;101126.50;4960917;28;20121;-83
2021/01/27 00:51:41;;;;;;;12.93;8.40;;;;;;;1.51;98.69;101118.25;4952783;29;20126;-82
2021/01/27 00:54:07;;;;;;;18.25;9.30;;;;;;;1.47;97.72;101126.50;4966283;28;20036;-84
2021/01/27 00:56:32;;;;;;;12.65;7.78;;;;;;;1.43;98.41;101125.81;4967243;28;20035;-82
2021/01/27 00:58:58;;;;;;;14.10;8.88;;;;;;;1.43;98.27;101109.97;4966815;28;20039;-86
2021/01/27 01:01:24;;;;;;;12.07;7.85;;;;;;;1.44;97.91;101110.81;4980542;28;20042;-84
2021/01/27 01:03:51;;;;;;;12.38;8.15;;;;;;;1.44;97.63;101106.38;4969427;28;20057;-84
2021/01/27 01:06:19;;;;;;;14.63;8.80;;;;;;;1.45;97.29;101094.00;4967723;28;20039;-85
2021/01/27 01:08:44;;;;;;;14.45;8.52;;;;;;;1.47;98.21;101100.91;4966861;28;20082;-84
2021/01/27 01:11:10;;;;;;;11.63;8.45;;;;;;;1.43;97.21;101088.81;4955537;28;20129;-86
2021/01/27 01:13:35;;;;;;;13.10;8.30;;;;;;;1.44;97.57;101085.22;4972915;28;20123;-87
2021/01/27 01:16:02;;;;;;;10.77;7.88;;;;;;;1.42;97.37;101095.06;4971949;28;20050;-84
2021/01/27 01:18:27;;;;;;;12.45;9.10;;;;;;;1.44;97.96;101090.53;4980629;28;20035;-82
2021/01/27 01:20:52;;;;;;;12.65;7.47;;;;;;;1.37;96.18;101088.34;4971090;28;20456;-83
2021/01/27 01:23:20;;;;;;;11.77;6.03;;;;;;;1.38;95.34;101092.69;4987996;28;20077;-84
2021/01/27 01:25:47;;;;;;;11.23;8.32;;;;;;;1.42;96.42;101087.13;4968989;28;20045;-84
2021/01/27 01:28:13;;;;;;;11.38;7.00;;;;;;;1.42;95.41;101086.28;4970700;28;20505;-86
2021/01/27 01:30:43;;;;;;;11.43;6.85;;;;;;;1.45;95.14;101091.38;4982214;28;20105;-84
2021/01/27 01:33:21;;;;;;;10.77;6.95;;;;;;;1.43;94.53;101082.66;4962299;28;20520;-82
2021/01/27 01:35:48;;;;;;;11.50;6.95;;;;;;;1.43;94.08;101085.31;4953067;28;20122;-82
2021/01/27 01:38:14;;;;;;;11.15;6.50;;;;;;;1.44;93.50;101087.88;4968108;28;20039;-82
2021/01/27 01:40:48;;;;;;;12.30;7.75;;;;;;;1.50;95.78;101086.63;4954106;28;20047;-84
2021/01/27 01:43:26;;;;;;;11.73;7.30;;;;;;;1.45;93.63;101091.38;4953222;28;20044;-84
2021/01/27 01:45:55;;;;;;;13.67;7.87;;;;;;;1.46;94.30;101093.91;4970151;28;20038;-84
2021/01/27 01:48:27;;;;;;;12.50;8.13;;;;;;;1.43;93.71;101102.03;4969200;28;20346;-84
2021/01/27 01:51:15;;;;;;;12.93;7.80;;;;;;;1.44;94.52;101095.81;4976097;28;20039;-83
2021/01/27 01:53:41;;;;;;;10.95;7.70;;;;;;;1.46;94.32;101093.91;4976028;28;20508;-82
2021/01/27 01:56:13;;;;;;;12.27;6.93;;;;;;;1.43;94.81;101099.38;4962152;28;20075;-83
2021/01/27 01:58:40;;;;;;;12.48;8.07;;;;;;;1.43;94.04;101096.75;4963420;28;20031;-83
2021/01/27 02:01:06;;;;;;;10.18;6.32;;;;;;;1.42;93.77;101087.13;4963738;28;20039;-83
2021/01/27 02:03:34;;;;;;;10.30;6.65;;;;;;;1.41;93.33;101085.44;4956788;28;20502;-83
2021/01/27 02:06:01;;;;;;;12.57;7.43;;;;;;;1.41;93.29;101082.78;4985009;28;20047;-83
2021/01/27 02:08:28;;;;;;;10.65;7.15;;;;;;;1.39;93.23;101081.19;4961634;28;20035;-83
2021/01/27 02:10:56;;;;;;;10.40;6.95;;;;;;;1.39;92.58;101054.75;4975342;28;20046;-83
2021/01/27 02:13:49;;;;;;;10.85;6.43;;;;;;;1.38;92.57;101059.16;4975041;28;20050;-85
2021/01/27 02:16:29;;;;;;;11.68;7.55;;;;;;;1.35;92.12;101054.06;4962636;28;20082;-83
2021/01/27 02:19:03;;;;;;;12.23;7.28;;;;;;;1.34;92.62;101044.44;4972300;28;20034;-83
2021/01/27 02:22:03;;;;;;;17.50;8.20;;;;;;;1.34;92.12;101029.41;4961864;28;20493;-84
2021/01/27 02:25:06;;;;;;;11.57;7.10;;;;;;;1.34;92.99;101041.81;4964770;28;20043;-84
2021/01/27 02:27:54;;;;;;;10.20;6.50;;;;;;;1.30;91.95;101027.09;4967965;28;20070;-83
2021/01/27 02:30:22;;;;;;;11.55;7.85;;;;;;;1.32;93.62;101025.19;4938665;29;20405;-83
2021/01/27 02:33:22;;;;;;;11.38;7.47;;;;;;;1.28;93.49;101008.66;4955791;28;20101;-83
2021/01/27 02:36:02;;;;;;;11.43;7.20;;;;;;;1.23;91.57;101013.41;4953368;28;20147;-85
2021/01/27 02:38:34;;;;;;;11.07;7.03;;;;;;;1.24;92.26;101012.47;4970594;28;20050;-83
2021/01/27 02:41:05;;;;;;;11.65;7.90;;;;;;;1.23;92.92;101007.25;4971011;28;20046;-83
2021/01/27 02:43:35;;;;;;;12.43;7.70;;;;;;;1.23;93.04;101017.84;4967332;28;20038;-86
2021/01/27 02:46:13;;;;;;;11.02;7.55;;;;;;;1.24;92.82;101001.06;4969981;28;20030;-83
2021/01/27 02:48:54;;;;;;;13.27;8.18;;;;;;;1.23;93.26;101008.09;4966607;28;20090;-83
2021/01/27 02:51:26;;;;;;;12.60;7.85;;;;;;;1.22;92.72;101008.22;4969473;28;20043;-84
2021/01/27 02:54:02;;;;;;;11.95;8.23;;;;;;;1.25;93.61;101005.38;4974029;28;20038;-82
2021/01/27 02:56:33;;;;;;;12.50;8.23;;;;;;;1.23;92.86;101002.81;4969786;28;20069;-86
2021/01/27 02:59:25;;;;;;;11.77;7.45;;;;;;;1.23;93.35;100994.91;4984701;28;20039;-86
2021/01/27 03:02:02;;;;;;;10.35;6.53;;;;;;;1.23;92.10;101004.63;4969350;28;20496;-84
2021/01/27 03:04:55;;;;;;;12.93;7.63;;;;;;;1.23;93.24;100989.59;4954800;28;20047;-83
2021/01/27 03:07:21;;;;;;;12.57;7.85;;;;;;;1.21;93.45;100994.16;4961688;28;20408;-83
2021/01/27 03:09:57;;;;;;;9.82;7.10;;;;;;;1.21;93.10;100986.22;4985262;28;20039;-82
2021/01/27 03:12:23;;;;;;;13.50;6.22;;;;;;;1.21;91.40;100982.72;4956221;28;20401;-82
2021/01/27 03:14:49;;;;;;;11.70;7.18;;;;;;;1.23;92.82;100972.91;4968682;28;20039;-86
2021/01/27 03:17:19;;;;;;;10.52;6.95;;;;;;;1.21;91.41;100980.06;4970121;28;20043;-84
2021/01/27 03:20:02;;;;;;;10.85;6.20;;;;;;;1.23;92.21;100970.25;4972929;28;20039;-84
2021/01/27 03:22:56;;;;;;;9.55;6.47;;;;;;;1.20;91.79;100959.88;4955173;28;20382;-83
2021/01/27 03:25:37;;;;;;;9.30;5.60;;;;;;;1.18;91.96;100960.00;4958997;28;20046;-86
2021/01/27 03:28:09;;;;;;;8.95;6.32;;;;;;;1.22;93.60;100950.06;4965518;28;20058;-89
2021/01/27 03:30:36;;;;;;;9.25;6.03;;;;;;;1.21;93.26;100951.00;4973479;28;20039;-88
2021/01/27 03:33:27;;;;;;;9.45;6.68;;;;;;;1.19;93.31;100931.75;4974005;28;20053;-83
2021/01/27 03:35:58;;;;;;;8.80;5.47;;;;;;;1.18;93.13;100932.69;4988855;28;20463;-84
2021/01/27 03:38:29;;;;;;;8.95;5.28;;;;;;;1.17;92.31;100933.66;4973628;28;20043;-86
2021/01/27 03:41:01;;;;;;;10.20;5.78;;;;;;;1.19;92.68;100927.31;4969899;28;20039;-82
2021/01/27 03:43:57;;;;;;;11.50;5.45;;;;;;;1.22;92.52;100918.34;4964247;28;20059;-85
2021/01/27 03:46:34;;;;;;;9.40;5.22;;;;;;;1.22;92.51;100926.28;4897128;28;20050;-85
2021/01/27 03:49:04;;;;;;;7.80;5.50;;;;;;;1.24;92.90;100924.38;4956040;28;20058;-85
2021/01/27 03:51:37;;;;;;;8.23;5.28;;;;;;;1.24;92.91;100919.09;4971648;28;20066;-84
2021/01/27 03:54:05;;;;;;;7.70;5.07;;;;;;;1.26;93.77;100918.03;4972118;28;20093;-83
2021/01/27 03:56:41;;;;;;;7.57;4.80;;;;;;;1.25;93.09;100911.03;4979370;28;20147;-82
2021/01/27 03:59:13;;;;;;;7.90;5.00;;;;;;;1.28;93.08;100907.34;4966993;28;20101;-82
2021/01/27 04:01:54;;;;;;;6.03;4.43;;;;;;;1.28;92.60;100902.06;4968577;28;20047;-84
2021/01/27 04:04:20;;;;;;;6.13;4.15;;;;;;;1.31;92.69;100891.28;4964884;28;20150;-82
2021/01/27 04:06:46;;;;;;;7.85;4.15;;;;;;;1.32;93.14;100885.91;4961592;28;20069;-86
2021/01/27 04:09:12;;;;;;;8.43;4.55;;;;;;;1.34;93.20;100889.28;4968819;28;20070;-87
2021/01/27 04:11:37;;;;;;;6.53;4.10;;;;;;;1.34;92.84;100897.22;4969990;28;20042;-83
2021/01/27 04:14:04;;;;;;;10.45;4.70;;;;;;;1.38;93.55;100891.72;4971251;28;20126;-86
2021/01/27 04:16:30;;;;;;;8.88;4.80;;;;;;;1.38;94.00;100889.91;4969179;28;20038;-84
2021/01/27 04:19:00;;;;;;;6.32;3.92;;;;;;;1.36;93.12;100873.31;4985850;28;20094;-84
2021/01/27 04:21:25;;;;;;;;;;;;;;;1.38;94.06;100876.69;4974984;28;20405;-86
2021/01/27 04:23:50;;;;;;;6.45;3.63;;;;;;;1.29;94.00;100864.09;4977941;28;19914;-86
2021/01/27 04:26:17;;;;;;;8.60;4.20;;;;;;;1.32;94.70;100863.88;4970731;28;20110;-84
2021/01/27 04:28:43;;;;;;;7.05;3.75;;;;;;;1.33;94.10;100855.03;4973650;28;20042;-82
2021/01/27 04:31:08;;;;;;;5.97;3.72;;;;;;;1.36;94.58;100857.47;4950370;28;20047;-84
2021/01/27 04:33:33;;;;;;;6.57;3.58;;;;;;;1.35;94.25;100858.38;4951385;28;20042;-86
2021/01/27 04:35:59;;;;;;;6.00;3.53;;;;;;;1.33;94.34;100852.38;4954516;28;20404;-86
2021/01/27 04:38:24;;;;;;;6.03;3.50;;;;;;;1.35;94.86;100845.16;4982346;28;20031;-84
2021/01/27 04:40:54;;;;;;;5.53;3.55;;;;;;;1.34;94.58;100838.19;4966684;28;20094;-85
2021/01/27 04:43:25;;;;;;;7.65;3.72;;;;;;;1.33;94.55;100824.13;4974314;28;20053;-86
2021/01/27 04:46:00;;;;;;;7.57;3.55;;;;;;;1.33;95.30;100815.38;4975672;28;20062;-85
2021/01/27 04:49:01;;;;;;;8.05;4.03;;;;;;;1.30;95.33;100824.34;4975109;28;20053;-84
2021/01/27 04:52:04;;;;;;;8.80;3.80;;;;;;;1.30;95.69;100816.41;4940371;28;20042;-86
2021/01/27 04:54:51;;;;;;;7.80;3.15;;;;;;;1.27;95.63;100813.13;4952259;28;20074;-85
2021/01/27 04:57:38;;;;;;;7.05;3.70;;;;;;;1.30;96.49;100799.72;4953060;28;20045;-86
2021/01/27 05:00:13;;;;;;;6.63;3.25;;;;;;;1.29;96.71;100790.91;4974421;28;20051;-86
2021/01/27 05:02:57;;;;;;;7.32;3.95;;;;;;;1.32;96.61;100808.34;4973608;28;20050;-86
2021/01/27 05:05:26;;;;;;;9.10;4.07;;;;;;;1.31;96.14;100783.72;4947761;28;20055;-86
2021/01/27 05:07:55;;;;;;;6.03;3.90;;;;;;;1.34;96.80;100772.94;4970189;28;20450;-84
2021/01/27 05:10:32;;;;;;;5.78;3.80;;;;;;;1.36;96.71;100778.13;4982431;28;20116;-86
2021/01/27 05:13:07;;;;;;;6.38;3.58;;;;;;;1.36;96.04;100775.50;4964551;28;20078;-84
2021/01/27 05:15:33;;;;;;;5.18;3.00;;;;;;;1.38;96.48;100778.84;4970687;28;20045;-83
2021/01/27 05:17:58;;;;;;;6.68;3.78;;;;;;;1.41;96.45;100768.09;4969550;28;20035;-84
2021/01/27 05:20:24;;;;;;;6.88;3.58;;;;;;;1.40;95.88;100754.97;4959162;28;20046;-83
2021/01/27 05:22:50;;;;;;;5.80;3.45;;;;;;;1.42;96.22;100759.19;4975584;28;20122;-84
2021/01/27 05:25:37;;;;;;;5.75;3.53;;;;;;;1.45;96.68;100751.03;4963502;28;20106;-85
2021/01/27 05:28:07;;;;;;;7.03;3.50;;;;;;;1.39;96.40;100743.53;4978158;28;20417;-85
2021/01/27 05:30:34;;;;;;;;;;;;;;;1.42;95.91;100753.06;4983718;28;20042;-82
2021/01/27 05:33:00;;;;;;;6.45;3.47;;;;;;;1.35;96.78;100755.28;4971155;28;19922;-85
2021/01/27 05:35:35;;;;;;;6.85;3.30;;;;;;;1.38;97.03;100733.91;4956799;28;20109;-83
2021/01/27 05:38:26;;;;;;;5.88;3.38;;;;;;;1.38;97.77;100725.97;4967790;28;20042;-86
2021/01/27 05:41:28;;;;;;;8.93;3.33;;;;;;;1.39;97.48;100722.38;4971726;28;20066;-85
2021/01/27 05:44:05;;;;;;;6.72;3.88;;;;;;;1.39;97.61;100714.47;4970361;28;20042;-85
2021/01/27 05:46:35;;;;;;;6.15;3.10;;;;;;;1.37;97.63;100713.72;4985243;28;20543;-85
2021/01/27 05:49:02;;;;;;;7.45;3.83;;;;;;;1.43;97.24;100720.38;4972073;28;20050;-85
2021/01/27 05:51:31;;;;;;;7.20;3.80;;;;;;;1.43;97.56;100708.00;4974189;28;20277;-85
2021/01/27 05:53:58;;;;;;;5.45;2.53;;;;;;;1.40;96.90;100712.66;4974067;28;20196;-86
2021/01/27 05:56:25;;;;;;;5.63;3.05;;;;;;;1.39;97.27;100698.59;4962041;28;20105;-86
2021/01/27 05:59:07;;;;;;;5.88;3.58;;;;;;;1.41;96.58;100703.75;4982936;28;20554;-82
2021/01/27 06:01:42;;;;;;;5.63;2.97;;;;;;;1.39;96.72;100685.38;4952523;28;20043;-84
2021/01/27 06:04:10;;;;;;;5.80;3.15;;;;;;;1.43;97.05;100710.63;4964080;28;20043;-82
2021/01/27 06:06:39;;;;;;;4.53;2.40;;;;;;;1.46;96.56;100717.50;4974766;28;20121;-86
2021/01/27 06:09:06;;;;;;;5.85;3.25;;;;;;;1.46;97.46;100718.34;4973146;28;20050;-85
2021/01/27 06:11:32;;;;;;;5.95;3.45;;;;;;;1.46;96.39;100706.94;4973971;28;20039;-86
2021/01/27 06:14:10;;;;;;;4.85;3.38;;;;;;;1.48;96.91;100720.91;4970752;28;20054;-85
2021/01/27 06:16:43;;;;;;;6.65;3.72;;;;;;;1.47;97.16;100717.41;4953482;28;20038;-84
2021/01/27 06:19:14;;;;;;;6.20;3.20;;;;;;;1.46;96.65;100691.06;4973674;28;20139;-85
2021/01/27 06:22:01;;;;;;;4.18;2.55;;;;;;;1.47;96.48;100687.47;4958815;28;20049;-86
2021/01/27 06:25:01;;;;;;;5.57;3.28;;;;;;;1.46;96.95;100680.50;4955680;28;20125;-86
2021/01/27 06:27:55;;;;;;;7.43;3.30;;;;;;;1.46;97.24;100668.09;4940667;28;20046;-84
2021/01/27 06:30:41;;;;;;;5.25;3.22;;;;;;;1.44;96.59;100683.25;4966366;28;20449;-86
2021/01/27 06:33:34;;;;;;;4.85;2.90;;;;;;;1.44;97.01;100677.09;4974394;28;20360;-86
2021/01/27 06:36:23;;;;;;;5.20;3.40;;;;;;;1.43;96.64;100676.25;4974032;28;20508;-84
2021/01/27 06:39:31;;;;;;;6.80;4.00;;;;;;;1.45;97.08;100679.66;4972850;28;20051;-86
2021/01/27 06:42:34;;;;;;;5.68;3.38;;;;;;;1.45;97.10;100670.88;4974011;28;20129;-83
2021/01/27 06:45:15;;;;;;;5.13;3.50;;;;;;;1.42;96.62;100663.16;4982418;28;20038;-85
2021/01/27 06:47:55;;;;;;;7.00;4.68;;;;;;;1.43;98.16;100659.56;4976424;28;20049;-85
2021/01/27 06:51:06;;;;;;;5.97;3.42;;;;;;;1.44;98.11;100655.94;4956559;28;20043;-86
2021/01/27 06:53:55;;;;;;;6.40;3.92;;;;;;;1.35;98.41;100655.66;4926261;28;20527;-84
2021/01/27 06:56:38;;;;;;;7.25;3.92;;;;;;;1.30;99.90;100652.50;4960186;28;20050;-84
2021/01/27 06:59:06;;;;;;;6.13;4.22;;;;;;;1.22;100.00;100657.47;4964343;28;20035;-83
2021/01/27 07:01:56;;;;;;;6.47;3.88;;;;;;;1.09;100.00;100657.50;4976883;28;20087;-82
2021/01/27 07:04:55;;;;;;;8.65;5.10;;;;;;;0.96;100.00;100651.34;4929998;28;20132;-86
2021/01/27 07:07:52;;;;;;;8.35;5.80;;;;;;;0.93;100.00;100645.44;4940048;28;20256;-84
2021/01/27 07:10:38;;;;;;;6.90;4.75;;;;;;;0.86;100.00;100671.41;4968091;28;20083;-85
2021/01/27 07:13:31;;;;;;;8.73;6.07;;;;;;;0.80;100.00;100667.41;4963240;28;20078;-83
2021/01/27 07:16:09;;;;;;;8.88;6.60;;;;;;;0.74;100.00;100666.97;4979406;28;20066;-84
2021/01/27 07:19:06;;;;;;;12.68;6.50;;;;;;;0.67;100.00;100664.75;4973121;28;20038;-83
2021/01/27 07:21:58;;;;;;;10.50;7.40;;;;;;;0.66;100.00;100665.72;4931789;28;20509;-84
2021/01/27 07:24:33;;;;;;;16.13;9.32;;;;;;;0.67;100.00;100677.97;4949987;28;20057;-82
2021/01/27 07:27:13;;;;;;;12.02;8.98;;;;;;;0.66;100.00;100678.91;4980174;28;20113;-83
2021/01/27 07:29:51;;;;;;;16.02;8.68;;;;;;;0.60;100.00;100671.38;4976683;28;20047;-85
2021/01/27 07:32:26;;;;;;;14.32;8.20;;;;;;;0.63;100.00;100665.94;4969734;28;20050;-84
2021/01/27 07:35:13;;;;;;;13.82;7.50;;;;;;;0.59;100.00;100666.22;4973039;28;20102;-86
2021/01/27 07:37:52;;;;;;;18.08;9.98;;;;;;;0.57;100.00;100673.41;4970565;28;20126;-83
2021/01/27 07:40:29;;;;;;;16.00;9.63;;;;;;;0.57;100.00;100676.88;4975618;28;20516;-86
2021/01/27 07:43:14;;;;;;;18.27;10.60;;;;;;;0.54;100.00;100661.25;4956219;28;20046;-85
2021/01/27 07:45:47;;;;;;;17.70;12.43;;;;;;;0.54;100.00;100645.41;4954557;28;20070;-84
2021/01/27 07:48:23;;;;;;;19.63;13.48;;;;;;;0.51;100.00;100642.13;4954846;28;20042;-83
2021/01/27 07:50:57;;;;;;;19.33;12.77;;;;;;;0.45;100.00;100640.75;4971521;28;20070;-86
2021/01/27 07:54:18;;;;;;;20.10;13.77;;;;;;;0.47;100.00;100640.66;4936776;28;20043;-86
2021/01/27 07:57:27;;;;;;;20.90;13.95;;;;;;;0.40;100.00;100646.34;4913639;28;20043;-84
2021/01/27 07:59:59;;;;;;;;;;;;;;;0.40;100.00;100637.56;4888231;28;20038;-86
2021/01/27 08:02:30;;;;;;;25.25;17.63;;;;;;;0.31;100.00;100635.53;4953293;28;19996;-84
2021/01/27 08:05:01;;;;;;;23.95;15.07;;;;;;;0.29;100.00;100640.06;4968279;28;20091;-85
2021/01/27 08:07:32;;;;;;;25.88;17.00;;;;;;;0.30;100.00;100628.56;4948615;28;20473;-86
2021/01/27 08:10:22;;;;;;;31.10;20.63;;;;;;;0.31;100.00;100624.97;4953490;28;20042;-83
2021/01/27 08:12:53;;;;;;;24.48;14.77;;;;;;;0.30;100.00;100616.22;4969467;28;20061;-86
2021/01/27 08:15:25;;;;;;;27.38;18.52;;;;;;;0.29;100.00;100624.22;4972807;28;20248;-86
2021/01/27 08:17:58;;;;;;;33.83;24.55;;;;;;;0.37;100.00;100621.94;4946251;28;20090;-85
2021/01/27 08:20:32;;;;;;;29.30;20.63;;;;;;;0.38;100.00;100629.75;4967657;28;20050;-86
2021/01/27 08:23:43;;;;;;;27.25;20.02;;;;;;;0.40;100.00;100621.72;4963347;28;20047;-85
2021/01/27 08:26:08;;;;;;;27.63;20.77;;;;;;;0.40;100.00;100616.44;4872728;29;20053;-85
2021/01/27 08:28:37;;;;;;;27.33;20.33;;;;;;;0.41;100.00;100618.16;4934821;28;20050;-86
2021/01/27 08:31:12;;;;;;;26.30;19.43;;;;;;;0.45;100.00;100619.63;4957196;28;20416;-86
2021/01/27 08:33:40;;;;;;;24.20;17.52;;;;;;;0.43;100.00;100627.66;4966707;28;20039;-85
2021/01/27 08:36:11;;;;;;;25.13;18.23;;;;;;;0.45;100.00;100635.47;4954607;28;20505;-86
2021/01/27 08:38:43;;;;;;;31.55;20.67;;;;;;;0.49;100.00;100636.97;4961699;28;20054;-85
2021/01/27 08:41:31;;;;;;;29.15;20.27;;;;;;;0.54;100.00;100637.47;4965040;28;20051;-85
2021/01/27 08:43:56;;;;;;;28.58;21.70;;;;;;;0.54;100.00;100631.34;4941354;28;20133;-86
2021/01/27 08:46:44;;;;;;;28.38;19.20;;;;;;;0.54;100.00;100632.19;4967596;28;20058;-85
2021/01/27 08:49:11;;;;;;;25.48;17.67;;;;;;;0.58;100.00;100638.97;4947778;28;20050;-86
2021/01/27 08:51:55;;;;;;;28.38;19.80;;;;;;;0.60;100.00;100644.97;4959956;28;20039;-87
2021/01/27 08:54:49;;;;;;;28.17;20.23;;;;;;;0.60;100.00;100636.22;4951268;28;20046;-86
2021/01/27 08:57:24;;;;;;;30.88;20.65;;;;;;;0.61;100.00;100646.69;4951058;28;20612;-83
2021/01/27 09:00:09;;;;;;;32.72;20.77;;;;;;;0.63;100.00;100641.28;4963731;28;20035;-83
2021/01/27 09:02:40;;;;;;;28.75;19.42;;;;;;;0.64;100.00;100641.19;4970077;28;20053;-86
2021/01/27 09:05:13;;;;;;;34.00;22.98;;;;;;;0.66;100.00;100641.94;4979476;28;20185;-85
2021/01/27 09:07:59;;;;;;;29.73;21.08;;;;;;;0.68;100.00;100642.66;4978278;28;20065;-86
2021/01/27 09:10:30;;;;;;;31.15;21.27;;;;;;;0.72;100.00;100637.16;4945522;29;20078;-82
2021/01/27 09:12:55;;;;;;;35.58;21.20;;;;;;;0.72;100.00;100642.47;4957787;28;20469;-84
2021/01/27 09:15:29;;;;;;;24.38;15.90;;;;;;;0.71;100.00;100633.69;4977675;28;20047;-84
2021/01/27 09:17:56;;;;;;;29.65;19.67;;;;;;;0.75;100.00;100629.91;4973393;28;20637;-85
2021/01/27 09:20:27;;;;;;;29.38;20.23;;;;;;;0.75;100.00;100629.03;4977791;28;20039;-85
2021/01/27 09:23:00;;;;;;;30.73;19.80;;;;;;;0.78;100.00;100626.22;4977468;28;20049;-85
2021/01/27 09:25:27;;;;;;;29.25;19.85;;;;;;;0.81;100.00;100626.00;4977271;28;20047;-84
2021/01/27 09:28:18;;;;;;;26.42;15.70;;;;;;;0.82;100.00;100617.94;4979209;28;20118;-84
2021/01/27 09:30:43;;;;;;;31.85;21.95;;;;;;;0.86;100.00;100622.09;4983210;28;20113;-86
2021/01/27 09:33:28;;;;;;;30.42;18.92;;;;;;;0.86;100.00;100619.44;4975006;28;20637;-84
2021/01/27 09:36:06;;;;;;;27.67;18.77;;;;;;;0.89;100.00;100618.38;4972790;28;20051;-82
2021/01/27 09:38:32;;;;;;;31.95;21.25;;;;;;;0.91;100.00;100629.69;4984208;28;20528;-86
2021/01/27 09:41:04;;;;;;;32.97;22.23;;;;;;;0.96;100.00;100637.31;4976890;28;20054;-86
2021/01/27 09:43:35;;;;;;;27.42;19.02;;;;;;;0.96;100.00;100619.66;4972011;28;20043;-84
2021/01/27 09:46:26;;;;;;;28.88;19.05;;;;;;;1.00;100.00;100621.09;4971225;28;22057;-85
2021/01/27 09:48:54;;;;;;;25.33;15.75;;;;;;;1.00;100.00;100631.69;4967768;28;20039;-85
2021/01/27 09:51:20;;;;;;;23.27;14.20;;;;;;;1.00;100.00;100626.41;4975833;28;20138;-84
2021/01/27 09:53:46;;;;;;;25.85;15.75;;;;;;;1.03;100.00;100631.47;4973708;28;20126;-86
2021/01/27 09:56:18;;;;;;;23.23;15.10;;;;;;;1.05;100.00;100629.56;4974805;28;20067;-85
2021/01/27 09:58:44;;;;;;;24.65;14.60;;;;;;;1.06;100.00;100636.53;4973740;28;20039;-84
2021/01/27 10:01:16;;;;;;;27.80;17.85;;;;;;;1.10;100.00;100632.75;4990652;28;20070;-85
2021/01/27 10:03:43;;;;;;;30.55;20.67;;;;;;;1.16;100.00;100627.97;4980680;28;20062;-84
2021/01/27 10:06:36;;;;;;;25.02;16.27;;;;;;;1.17;100.00;100633.16;4973860;28;20305;-85
2021/01/27 10:09:07;;;;;;;24.13;14.25;;;;;;;1.17;100.00;100632.31;4956379;28;20048;-83
2021/01/27 10:11:35;;;;;;;24.33;16.15;;;;;;;1.17;100.00;100630.50;4971328;28;20143;-86
2021/01/27 10:14:26;;;;;;;24.70;15.13;;;;;;;1.19;100.00;100631.25;4971997;28;20054;-85
2021/01/27 10:17:04;;;;;;;25.85;15.48;;;;;;;1.22;100.00;100630.19;4977445;28;20050;-85
2021/01/27 10:20:00;;;;;;;24.10;14.32;;;;;;;1.23;100.00;100635.34;4962615;28;20138;-88
2021/01/27 10:23:00;;;;;;;32.15;18.15;;;;;;;1.27;100.00;100628.06;4949208;28;20039;-88
2021/01/27 10:25:31;;;;;;;21.98;14.80;;;;;;;1.24;100.00;100633.59;4907582;28;20249;-84
2021/01/27 10:28:08;;;;;;;27.08;17.00;;;;;;;1.30;100.00;100633.16;4937473;28;20051;-85
2021/01/27 10:30:44;;;;;;;23.33;14.35;;;;;;;1.33;100.00;100617.06;4948196;28;20643;-87
2021/01/27 10:33:39;;;;;;;21.88;12.73;;;;;;;1.32;100.00;100618.00;4956752;28;20512;-85
2021/01/27 10:36:42;;;;;;;19.95;10.77;;;;;;;1.30;100.00;100617.28;4953930;28;20082;-84
2021/01/27 10:39:13;;;;;;;19.77;11.85;;;;;;;1.29;100.00;100626.16;4955111;28;20156;-86
2021/01/27 10:41:39;;;;;;;25.88;15.40;;;;;;;1.30;100.00;100623.41;4942180;29;20527;-84
2021/01/27 10:44:28;;;;;;;25.08;16.77;;;;;;;1.39;100.00;100611.34;4905019;29;20051;-84
2021/01/27 10:46:57;;;;;;;23.60;16.75;;;;;;;1.41;100.00;100614.72;4951970;28;20425;-86
2021/01/27 10:49:23;;;;;;;;;;;;;;;1.44;100.00;100619.78;4940679;29;20118;-83
2021/01/27 10:51:48;;;;;;;21.80;13.43;;;;;;;1.38;100.00;100614.91;4934786;28;19946;-85
2021/01/27 10:54:18;;;;;;;20.77;12.52;;;;;;;1.40;100.00;100613.00;4918370;28;20051;-84
2021/01/27 10:56:43;;;;;;;19.95;12.80;;;;;;;1.45;100.00;100602.13;4940181;28;20528;-87
2021/01/27 10:59:09;;;;;;;25.20;16.55;;;;;;;1.52;100.00;100606.00;4912385;28;20051;-85
2021/01/27 11:01:38;;;;;;;23.63;14.95;;;;;;;1.53;100.00;100597.97;4870381;29;20044;-88
2021/01/27 11:04:04;;;;;;;20.23;10.93;;;;;;;1.50;100.00;100590.25;4857992;29;20040;-87
2021/01/27 11:06:31;;;;;;;22.15;11.50;;;;;;;1.51;100.00;100596.38;4860047;29;20059;-87
2021/01/27 11:08:56;;;;;;;18.42;10.52;;;;;;;1.55;100.00;100590.78;4857003;29;20052;-87
2021/01/27 11:11:21;;;;;;;18.17;11.60;;;;;;;1.58;100.00;100587.03;4844222;29;20181;-86
2021/01/27 11:13:48;;;;;;;19.58;13.10;;;;;;;1.62;100.00;100583.22;4863239;29;20059;-87
2021/01/27 11:16:16;;;;;;;20.65;14.50;;;;;;;1.66;100.00;100582.03;4865906;29;20064;-84
2021/01/27 11:18:42;;;;;;;19.25;13.23;;;;;;;1.68;100.00;100592.53;4895955;29;20044;-82
2021/01/27 11:21:08;;;;;;;18.67;12.60;;;;;;;1.69;100.00;100591.56;4867869;29;20059;-84
2021/01/27 11:23:34;;;;;;;19.80;14.00;;;;;;;1.74;100.00;100584.13;4899083;29;20169;-85
2021/01/27 11:25:59;;;;;;;20.25;12.32;;;;;;;1.76;100.00;100580.41;4872667;28;20134;-84
2021/01/27 11:28:26;;;;;;;22.50;13.85;;;;;;;1.76;100.00;100576.94;4950571;28;20051;-83
2021/01/27 11:30:52;;;;;;;21.05;14.00;;;;;;;1.80;100.00;100587.16;4906498;28;20110;-86
2021/01/27 11:33:18;;;;;;;20.33;15.65;;;;;;;1.85;100.00;100586.84;4959279;28;20110;-84
2021/01/27 11:35:44;;;;;;;17.90;13.25;;;;;;;1.82;100.00;100580.94;4974709;28;20039;-84
2021/01/27 11:38:09;;;;;;;20.58;13.80;;;;;;;1.86;100.00;100577.09;4989206;28;20042;-83
2021/01/27 11:40:35;;;;;;;20.88;13.43;;;;;;;1.85;100.00;100570.94;4964555;28;20035;-86
2021/01/27 11:43:00;;;;;;;22.70;15.65;;;;;;;1.89;100.00;100571.56;4971799;28;20051;-85
2021/01/27 11:45:26;;;;;;;22.65;16.02;;;;;;;1.91;100.00;100570.50;4976375;28;20046;-84
2021/01/27 11:47:51;;;;;;;18.02;11.95;;;;;;;1.89;100.00;100567.09;4967945;28;20038;-84
2021/01/27 11:50:21;;;;;;;19.83;14.73;;;;;;;1.91;100.00;100557.25;4999655;23;20039;-87
2021/01/27 11:52:49;;;;;;;20.00;13.05;;;;;;;1.93;100.00;100551.88;4993821;28;20057;-79
2021/01/27 11:55:15;;;;;;;21.52;14.38;;;;;;;1.95;100.00;100558.72;4985351;28;20042;-80